Time;durP1;ratioP1;P1;durP2;ratioP2;P2;SDS_P1;SDS_P2;PMS_P1;PMS_P2;Temp;Humidity;BMP_temperature;BMP_pressure;BME280_temperature;BME280_humidity;BME280_pressure;Samples;Min_cycle;Max_cycle;Signal;HPM_P1;HPM_P2
2023/07/04 00:05:33;;;;;;;;;;;;;;;;;;;;;
2023/07/04 00:09:15;;;;;;;6.13;2.63;;;19.30;70.30;;;;;;4877608;29;20477;-85
2023/07/04 00:16:15;;;;;;;8.27;2.50;;;19.30;70.80;;;;;;4829080;29;20490;-85
2023/07/04 00:19:31;;;;;;;2.87;1.80;;;19.30;71.00;;;;;;4814703;29;20545;-85
2023/07/04 00:22:40;;;;;;;3.27;2.20;;;19.20;71.00;;;;;;4823468;29;20621;-85
2023/07/04 00:26:17;;;;;;;5.93;2.27;;;19.20;71.20;;;;;;4788309;29;20509;-85
2023/07/04 00:29:28;;;;;;;3.43;1.90;;;19.20;71.60;;;;;;4751152;30;20566;-85
2023/07/04 00:36:09;;;;;;;7.13;2.53;;;19.10;72.30;;;;;;4741206;30;20555;-85
2023/07/04 00:39:52;;;;;;;;;;;;;;;;;;;;;
2023/07/04 00:54:44;;;;;;;3.53;2.30;;;19.10;73.70;;;;;;4795411;29;20548;-86
2023/07/04 01:05:12;;;;;;;5.57;2.67;;;19.00;74.40;;;;;;4857922;29;20426;-83
2023/07/04 01:16:06;;;;;;;2.23;1.70;;;18.80;75.40;;;;;;4806485;29;20502;-85
2023/07/04 01:19:18;;;;;;;3.90;2.57;;;18.80;75.80;;;;;;4814040;29;20450;-86
2023/07/04 01:23:09;;;;;;;7.80;2.73;;;18.70;76.10;;;;;;4851921;29;20477;-84
2023/07/04 01:26:42;;;;;;;8.37;3.00;;;18.70;76.60;;;;;;4862489;29;20524;-84
2023/07/04 01:30:04;;;;;;;3.23;2.33;;;18.70;76.90;;;;;;4811448;29;20531;-84
2023/07/04 01:33:50;;;;;;;3.53;2.10;;;18.60;77.30;;;;;;4808089;29;20515;-84
2023/07/04 02:03:36;;;;;;;5.60;2.53;;;18.40;80.50;;;;;;4950005;26;20486;-83
2023/07/04 02:06:38;;;;;;;5.73;2.60;;;18.30;80.80;;;;;;4904941;29;20545;-83
2023/07/04 02:09:42;;;;;;;4.93;2.50;;;18.20;81.10;;;;;;4899206;29;20506;-84
2023/07/04 02:13:16;;;;;;;9.63;3.80;;;18.20;81.50;;;;;;4906079;29;20502;-83
2023/07/04 02:16:54;;;;;;;4.70;2.63;;;18.20;81.60;;;;;;4907893;29;20551;-85
2023/07/04 02:27:20;;;;;;;;;;;;;;;;;;;;;
2023/07/04 02:30:04;;;;;;;3.00;1.97;;;18.20;83.00;;;;;;4950382;28;20525;-86
2023/07/04 02:33:33;;;;;;;4.10;2.00;;;18.10;83.50;;;;;;4929552;29;20705;-87
2023/07/04 02:41:18;;;;;;;5.30;2.30;;;18.00;85.40;;;;;;4903643;29;20435;-86
2023/07/04 02:45:08;;;;;;;;;;;;;;;;;;;;;
2023/07/04 02:48:19;;;;;;;6.20;2.20;;;17.90;86.50;;;;;;4931382;29;20489;-84
2023/07/04 02:51:40;;;;;;;5.90;2.53;;;17.80;87.10;;;;;;4908175;29;21006;-85
2023/07/04 02:54:57;;;;;;;;;;;;;;;;;;;;;
2023/07/04 02:58:01;;;;;;;4.73;2.30;;;17.80;88.30;;;;;;4868769;29;20483;-86
2023/07/04 03:01:39;;;;;;;;;;;;;;;;;;;;;
2023/07/04 03:05:26;;;;;;;;;;;;;;;;;;;;;
2023/07/04 03:08:51;;;;;;;8.60;2.60;;;17.70;90.00;;;;;;4864062;29;21017;-85
2023/07/04 03:12:27;;;;;;;;;;;;;;;;;;;;;
2023/07/04 03:16:15;;;;;;;;;;;;;;;;;;;;;
2023/07/04 03:19:25;;;;;;;5.23;2.20;;;17.60;90.70;;;;;;4912492;29;20482;-86
2023/07/04 03:29:40;;;;;;;9.53;2.63;;;17.60;91.20;;;;;;4909215;29;20566;-85
2023/07/04 03:33:01;;;;;;;;;;;;;;;;;;;;;
2023/07/04 03:36:10;;;;;;;11.00;2.37;;;17.50;91.50;;;;;;4916809;29;20478;-85
2023/07/04 03:39:36;;;;;;;5.07;2.13;;;17.50;91.60;;;;;;4872409;29;20439;-83
2023/07/04 03:43:04;;;;;;;7.00;2.47;;;17.50;91.60;;;;;;4852003;29;20543;-86
2023/07/04 03:46:29;;;;;;;5.50;2.33;;;17.40;92.00;;;;;;4844083;29;20508;-84
2023/07/04 03:52:42;;;;;;;4.73;2.83;;;17.40;92.20;;;;;;4832596;29;20467;-84
2023/07/04 03:55:55;;;;;;;3.20;2.27;;;17.50;92.30;;;;;;4871355;23;20489;-85
2023/07/04 03:59:45;;;;;;;;;;;;;;;;;;;;;
2023/07/04 04:02:55;;;;;;;8.17;2.93;;;17.40;92.40;;;;;;4862732;29;20446;-85
2023/07/04 04:17:26;;;;;;;;;;;;;;;;;;;;;
2023/07/04 04:25:05;;;;;;;5.50;2.07;;;17.50;93.00;;;;;;4752944;30;20463;-86
2023/07/04 04:36:14;;;;;;;11.90;2.53;;;17.60;93.30;;;;;;4739504;30;20544;-85
2023/07/04 04:49:45;;;;;;;;;;;;;;;;;;;;;
2023/07/04 04:56:54;;;;;;;5.43;2.37;;;17.50;94.10;;;;;;4845406;29;20507;-82
2023/07/04 05:00:36;;;;;;;;;;;;;;;;;;;;;
2023/07/04 05:07:46;;;;;;;3.97;2.47;;;17.60;94.00;;;;;;4846855;29;20418;-83
2023/07/04 05:14:44;;;;;;;;;;;;;;;;;;;;;
2023/07/04 05:22:25;;;;;;;8.53;2.90;;;18.00;93.40;;;;;;4771600;29;20473;-87
2023/07/04 05:25:55;;;;;;;9.00;2.90;;;18.00;93.40;;;;;;4815754;29;20490;-86
2023/07/04 05:29:08;;;;;;;5.60;2.10;;;18.10;93.40;;;;;;4849108;29;20481;-86
2023/07/04 05:42:48;;;;;;;6.27;2.90;;;18.20;93.10;;;;;;4872287;29;20478;-86
2023/07/04 05:50:43;;;;;;;4.13;2.20;;;18.10;93.10;;;;;;4798637;29;20449;-84
2023/07/04 05:53:40;;;;;;;7.73;2.27;;;18.20;93.00;;;;;;4850770;29;20446;-84
2023/07/04 05:56:29;;;;;;;5.13;2.20;;;18.30;92.80;;;;;;4851033;29;20514;-85
2023/07/04 05:58:59;;;;;;;8.33;2.60;;;18.40;92.80;;;;;;4855915;29;20507;-85
2023/07/04 06:01:32;;;;;;;4.10;2.40;;;18.40;92.80;;;;;;4854633;29;20537;-85
2023/07/04 06:04:04;;;;;;;9.00;3.00;;;18.50;92.70;;;;;;4851402;29;20542;-84
2023/07/04 06:06:39;;;;;;;2.83;2.03;;;18.50;92.50;;;;;;4851126;29;20506;-84
2023/07/04 06:09:14;;;;;;;4.27;2.23;;;18.50;92.50;;;;;;4854399;29;20509;-84
2023/07/04 06:11:46;;;;;;;7.27;3.50;;;18.80;92.30;;;;;;4857844;29;20495;-83
2023/07/04 06:14:27;;;;;;;4.43;2.37;;;18.70;91.80;;;;;;4855425;29;20453;-85
2023/07/04 06:16:57;;;;;;;6.87;2.37;;;18.60;92.00;;;;;;4851586;29;20453;-83
2023/07/04 06:19:28;;;;;;;5.23;2.50;;;18.50;92.30;;;;;;4837544;29;20563;-82
2023/07/04 06:22:06;;;;;;;5.97;2.50;;;18.50;92.50;;;;;;4906501;29;20469;-82
2023/07/04 06:24:36;;;;;;;7.40;2.90;;;18.50;92.60;;;;;;4913147;29;20467;-82
2023/07/04 06:27:09;;;;;;;10.40;2.60;;;18.60;92.50;;;;;;4916332;29;20459;-82
2023/07/04 06:29:38;;;;;;;5.13;2.70;;;18.60;92.30;;;;;;4930143;29;20485;-83
2023/07/04 06:32:06;;;;;;;7.73;2.47;;;18.60;92.40;;;;;;4915525;29;20462;-83
2023/07/04 06:34:37;;;;;;;7.10;2.47;;;18.60;92.20;;;;;;4905429;29;20488;-83
2023/07/04 06:37:08;;;;;;;5.13;2.30;;;18.80;92.00;;;;;;4913287;29;20443;-85
2023/07/04 06:39:35;;;;;;;3.23;2.23;;;18.80;91.70;;;;;;4910397;29;20544;-83
2023/07/04 06:42:10;;;;;;;4.87;2.23;;;18.90;91.80;;;;;;4905794;29;20900;-84
2023/07/04 06:44:44;;;;;;;6.73;2.30;;;18.90;91.50;;;;;;4902081;29;20458;-84
2023/07/04 06:47:17;;;;;;;8.60;2.77;;;19.00;91.50;;;;;;4902683;29;20517;-83
2023/07/04 06:49:44;;;;;;;5.17;2.43;;;19.00;91.30;;;;;;4901128;29;20457;-84
2023/07/04 06:52:16;;;;;;;4.63;2.40;;;19.00;91.20;;;;;;4902215;29;20457;-83
2023/07/04 06:54:54;;;;;;;5.40;2.63;;;19.10;90.70;;;;;;4902369;29;20450;-83
2023/07/04 06:57:28;;;;;;;8.83;3.40;;;19.10;90.60;;;;;;4920483;29;20458;-84
2023/07/04 06:59:56;;;;;;;6.37;2.40;;;19.20;90.30;;;;;;4894408;29;20519;-85
2023/07/04 07:02:32;;;;;;;5.43;2.47;;;19.30;90.20;;;;;;4911719;29;20467;-84
2023/07/04 07:04:59;;;;;;;4.47;2.13;;;19.50;89.50;;;;;;4901757;29;20898;-84
2023/07/04 07:07:26;;;;;;;8.63;2.30;;;19.60;88.70;;;;;;4902645;29;20458;-84
2023/07/04 07:09:55;;;;;;;6.67;2.80;;;19.60;88.60;;;;;;4910095;29;20570;-83
2023/07/04 07:12:25;;;;;;;5.70;2.43;;;19.60;88.50;;;;;;4902926;29;20448;-83
2023/07/04 07:15:05;;;;;;;5.60;2.40;;;20.20;87.40;;;;;;4921950;29;20474;-85
2023/07/04 07:17:33;;;;;;;6.73;3.00;;;20.10;86.70;;;;;;4922499;29;20447;-83
2023/07/04 07:20:04;;;;;;;3.57;2.17;;;19.90;86.40;;;;;;4900820;29;20926;-82
2023/07/04 07:22:35;;;;;;;9.77;4.40;;;19.90;86.40;;;;;;4901872;29;20610;-85
2023/07/04 07:25:02;;;;;;;4.23;2.30;;;20.20;86.30;;;;;;4902026;29;20481;-82
2023/07/04 07:27:35;;;;;;;4.53;3.07;;;20.70;84.80;;;;;;4918715;29;20454;-85
2023/07/04 07:30:05;;;;;;;6.80;2.87;;;20.40;84.80;;;;;;4905916;29;20534;-84
2023/07/04 07:32:37;;;;;;;5.93;2.70;;;20.20;84.80;;;;;;4913061;29;20478;-85
2023/07/04 07:35:07;;;;;;;6.20;2.60;;;20.20;85.80;;;;;;4910320;29;20554;-83
2023/07/04 07:37:34;;;;;;;7.50;4.70;;;20.80;83.10;;;;;;4910349;29;20487;-84
2023/07/04 07:40:03;;;;;;;4.77;2.07;;;20.90;81.60;;;;;;4921431;29;20459;-86
2023/07/04 07:42:36;;;;;;;2.90;2.43;;;20.50;82.60;;;;;;4915656;29;20479;-82
2023/07/04 07:45:04;;;;;;;7.80;2.20;;;20.80;82.50;;;;;;4918649;29;20483;-84
2023/07/04 07:47:32;;;;;;;4.10;2.13;;;20.60;82.90;;;;;;4921042;29;20943;-84
2023/07/04 07:49:59;;;;;;;6.80;2.90;;;20.50;82.50;;;;;;4911961;29;20471;-84
2023/07/04 07:52:38;;;;;;;4.90;2.43;;;20.70;82.20;;;;;;4915076;29;20479;-84
2023/07/04 07:55:10;;;;;;;8.37;3.60;;;20.60;81.90;;;;;;4930814;29;20481;-83
2023/07/04 07:57:37;;;;;;;5.10;2.77;;;20.50;82.60;;;;;;4911340;29;20438;-85
2023/07/04 08:00:10;;;;;;;3.97;2.10;;;20.50;82.30;;;;;;4938246;29;20446;-82
2023/07/04 08:02:40;;;;;;;5.50;2.63;;;21.00;81.70;;;;;;4933483;29;20462;-86
2023/07/04 08:05:11;;;;;;;5.93;3.23;;;21.10;80.30;;;;;;4918287;29;20479;-82
2023/07/04 08:08:00;;;;;;;6.53;2.70;;;21.00;80.10;;;;;;4906109;29;20471;-83
2023/07/04 08:10:38;;;;;;;5.23;2.50;;;21.00;78.30;;;;;;4902219;29;20467;-83
2023/07/04 08:13:12;;;;;;;4.20;2.40;;;20.90;78.30;;;;;;4904858;29;20458;-84
2023/07/04 08:15:51;;;;;;;5.53;2.27;;;20.90;78.90;;;;;;4920398;29;20471;-84
2023/07/04 08:18:27;;;;;;;4.23;2.30;;;20.90;79.10;;;;;;4907664;29;20458;-84
2023/07/04 08:21:00;;;;;;;3.10;2.20;;;21.00;79.00;;;;;;4903650;29;20461;-83
2023/07/04 08:23:30;;;;;;;2.87;1.97;;;21.00;78.10;;;;;;4923303;29;20475;-84
2023/07/04 08:25:58;;;;;;;5.70;2.40;;;21.20;77.60;;;;;;4904305;29;20458;-85
2023/07/04 08:28:42;;;;;;;8.23;2.60;;;21.30;77.20;;;;;;4923797;29;20597;-83
2023/07/04 08:31:17;;;;;;;8.80;2.90;;;21.20;77.20;;;;;;4906362;29;20681;-84
2023/07/04 08:33:47;;;;;;;4.10;2.30;;;21.30;77.30;;;;;;4907226;29;20454;-84
2023/07/04 08:36:28;;;;;;;5.70;2.00;;;21.40;77.00;;;;;;4905600;29;20454;-82
2023/07/04 08:38:56;;;;;;;3.50;2.63;;;22.10;74.60;;;;;;4911281;29;21121;-84
2023/07/04 08:41:45;;;;;;;4.10;2.00;;;22.00;73.10;;;;;;4912326;29;20943;-84
2023/07/04 08:44:25;;;;;;;4.73;2.57;;;21.90;72.20;;;;;;4926174;29;20470;-84
2023/07/04 08:47:06;;;;;;;2.60;1.53;;;22.00;70.70;;;;;;4908835;29;20508;-84
2023/07/04 08:49:55;;;;;;;4.77;2.10;;;22.00;70.50;;;;;;4909892;29;20574;-83
2023/07/04 08:52:52;;;;;;;6.00;2.53;;;22.10;68.80;;;;;;4928757;29;20462;-86
2023/07/04 08:55:26;;;;;;;4.10;2.13;;;22.10;68.40;;;;;;4903513;29;21325;-83
2023/07/04 08:58:02;;;;;;;4.57;2.17;;;22.20;68.50;;;;;;4904651;29;20446;-86
2023/07/04 09:00:39;;;;;;;10.53;2.03;;;22.30;67.20;;;;;;4897889;29;20497;-84
2023/07/04 09:03:15;;;;;;;6.27;2.50;;;22.60;66.10;;;;;;4899397;29;20451;-81
2023/07/04 09:05:54;;;;;;;3.07;1.73;;;23.70;62.10;;;;;;4901304;29;20514;-83
2023/07/04 09:08:43;;;;;;;5.67;2.80;;;23.30;61.70;;;;;;4906529;29;20562;-84
2023/07/04 09:11:18;;;;;;;4.37;2.37;;;23.20;62.10;;;;;;4923726;29;20455;-83
2023/07/04 09:14:17;;;;;;;5.57;2.40;;;23.30;61.70;;;;;;4914420;29;20435;-84
2023/07/04 09:16:57;;;;;;;;;;;;;;;;;;;;;
2023/07/04 09:19:43;;;;;;;5.97;2.30;;;23.60;59.30;;;;;;4916854;29;20462;-83
2023/07/04 09:22:16;;;;;;;5.33;2.23;;;23.80;58.80;;;;;;4904230;29;20518;-84
2023/07/04 09:24:50;;;;;;;4.87;2.90;;;24.60;57.90;;;;;;4931829;29;20447;-84
2023/07/04 09:27:17;;;;;;;2.67;2.00;;;24.80;56.50;;;;;;4925987;29;21011;-83
2023/07/04 09:29:56;;;;;;;5.03;2.00;;;25.70;55.00;;;;;;4909046;29;20514;-85
2023/07/04 09:32:25;;;;;;;3.17;2.20;;;26.00;53.60;;;;;;4912390;29;20862;-84
2023/07/04 09:35:13;;;;;;;4.37;2.40;;;26.40;52.70;;;;;;4905902;29;20497;-85
2023/07/04 09:38:08;;;;;;;3.63;2.37;;;25.80;53.00;;;;;;4912840;29;20486;-86
2023/07/04 09:40:52;;;;;;;4.27;2.40;;;24.70;55.10;;;;;;4896963;29;20467;-85
2023/07/04 09:43:32;;;;;;;4.60;2.97;;;24.70;55.40;;;;;;4902239;29;20578;-84
2023/07/04 09:46:26;;;;;;;5.63;2.57;;;25.70;54.00;;;;;;4906869;29;20478;-84
2023/07/04 09:49:16;;;;;;;4.50;2.60;;;25.40;53.90;;;;;;4899423;29;20490;-85
2023/07/04 09:51:43;;;;;;;4.73;2.13;;;25.10;54.80;;;;;;4906361;29;20489;-82
2023/07/04 09:54:19;;;;;;;6.47;2.47;;;25.50;54.40;;;;;;4920739;29;20519;-82
2023/07/04 09:56:46;;;;;;;3.40;2.30;;;25.50;53.90;;;;;;4902295;29;20491;-84
2023/07/04 09:59:27;;;;;;;3.13;2.60;;;25.30;54.20;;;;;;4921398;29;20491;-84
2023/07/04 10:02:17;;;;;;;4.40;2.80;;;25.00;55.00;;;;;;4921106;29;20443;-82
2023/07/04 10:04:50;;;;;;;3.90;2.47;;;26.40;52.80;;;;;;4918223;29;20446;-86
2023/07/04 10:07:21;;;;;;;6.07;2.40;;;26.50;52.30;;;;;;4917918;29;20454;-84
2023/07/04 10:09:56;;;;;;;3.30;2.60;;;26.40;52.70;;;;;;4922631;29;20553;-84
2023/07/04 10:12:28;;;;;;;5.70;3.33;;;26.60;52.10;;;;;;4915583;29;20454;-82
2023/07/04 10:14:58;;;;;;;3.67;2.90;;;26.80;51.30;;;;;;4913119;29;20497;-85
2023/07/04 10:17:37;;;;;;;5.97;3.17;;;26.60;51.10;;;;;;4908782;29;20824;-83
2023/07/04 10:20:15;;;;;;;3.00;2.70;;;26.40;51.70;;;;;;4904428;29;20466;-85
2023/07/04 10:22:49;;;;;;;4.50;2.80;;;27.20;50.60;;;;;;4904890;29;20510;-84
2023/07/04 10:25:25;;;;;;;5.07;3.50;;;27.70;50.00;;;;;;4906665;29;20531;-84
2023/07/04 10:28:18;;;;;;;3.30;2.83;;;27.50;50.20;;;;;;4922825;29;20447;-83
2023/07/04 10:31:06;;;;;;;4.20;3.20;;;27.20;49.60;;;;;;4910942;29;20486;-85
2023/07/04 10:33:48;;;;;;;4.20;2.87;;;27.70;49.20;;;;;;4908583;29;20469;-83
2023/07/04 10:36:37;;;;;;;5.73;3.80;;;28.20;49.00;;;;;;4908080;29;20632;-83
2023/07/04 10:39:11;;;;;;;4.27;3.00;;;28.30;47.60;;;;;;4907376;29;20495;-83
2023/07/04 10:41:50;;;;;;;7.30;3.50;;;28.00;48.30;;;;;;4909116;29;20496;-83
2023/07/04 10:44:26;;;;;;;4.60;3.47;;;28.60;47.20;;;;;;4928311;29;20455;-83
2023/07/04 10:47:09;;;;;;;6.60;3.37;;;28.30;47.30;;;;;;4925004;29;20442;-85
2023/07/04 10:49:54;;;;;;;4.83;4.00;;;28.00;47.20;;;;;;4940612;29;20474;-86
2023/07/04 10:52:31;;;;;;;5.90;3.50;;;27.80;47.60;;;;;;4937800;28;20462;-85
2023/07/04 10:54:59;;;;;;;6.20;4.20;;;27.10;47.90;;;;;;4914749;29;20510;-85
2023/07/04 10:57:26;;;;;;;3.50;2.80;;;26.50;48.80;;;;;;4919200;29;20534;-86
2023/07/04 11:00:21;;;;;;;5.47;3.33;;;26.50;49.50;;;;;;4919115;29;20451;-84
2023/07/04 11:03:01;;;;;;;4.60;3.70;;;27.00;49.50;;;;;;4906819;29;20459;-85
2023/07/04 11:05:38;;;;;;;4.50;3.30;;;26.80;49.10;;;;;;4938064;28;20462;-84
2023/07/04 11:08:18;;;;;;;3.97;3.37;;;27.10;49.10;;;;;;4931383;29;20479;-83
2023/07/04 11:10:50;;;;;;;7.20;4.27;;;26.90;49.20;;;;;;4931546;28;20471;-85
2023/07/04 11:13:21;;;;;;;6.30;4.43;;;27.00;49.30;;;;;;4920768;29;20439;-82
2023/07/04 11:15:53;;;;;;;6.03;3.20;;;27.00;49.50;;;;;;4919126;29;20519;-86
2023/07/04 11:18:29;;;;;;;5.40;3.70;;;26.90;48.60;;;;;;4928261;29;20459;-86
2023/07/04 11:26:22;;;;;;;;;;;;;;;;;;;;;
2023/07/04 11:30:17;;;;;;;;;;;;;;;;;;;;;
2023/07/04 11:40:38;;;;;;;3.50;3.20;;;27.20;47.50;;;;;;4074120;27;20499;-85
2023/07/04 11:48:05;;;;;;;;;;;;;;;;;;;;;
2023/07/04 12:13:06;;;;;;;5.50;3.87;;;28.60;44.60;;;;;;3240297;26;20968;-86
2023/07/04 12:16:56;;;;;;;5.07;3.50;;;28.00;45.00;;;;;;4950012;29;20448;-84
2023/07/04 12:20:02;;;;;;;;;;;;;;;;;;;;;
2023/07/04 12:27:19;;;;;;;5.80;4.10;;;28.80;43.20;;;;;;4862794;29;20502;-86
2023/07/04 12:38:53;;;;;;;7.60;5.20;;;28.80;42.50;;;;;;4781604;30;21191;-84
2023/07/04 12:42:11;;;;;;;7.60;4.60;;;27.90;43.80;;;;;;4736622;30;20472;-85
2023/07/04 12:49:27;;;;;;;;;;;;;;;;;;;;;
2023/07/04 12:53:10;;;;;;;6.00;5.37;;;27.90;44.40;;;;;;4867605;29;20550;-86
2023/07/04 13:00:11;;;;;;;6.17;5.13;;;27.20;43.90;;;;;;4799276;29;20447;-84
2023/07/04 13:23:35;;;;;;;;;;;;;;;;;;;;;
2023/07/04 13:57:59;;;;;;;;;;;;;;;;;;;;;
2023/07/04 14:40:27;;;;;;;;;;;;;;;;;;;;;
2023/07/04 14:44:50;;;;;;;7.20;5.73;;;27.30;44.50;;;;;;4794167;29;20435;-84
2023/07/04 14:48:12;;;;;;;5.90;5.07;;;27.60;43.40;;;;;;4814331;29;20532;-83
2023/07/04 14:59:51;;;;;;;6.03;5.43;;;27.00;45.00;;;;;;4811022;29;20432;-85
2023/07/04 15:07:08;;;;;;;7.10;5.50;;;26.90;44.70;;;;;;4807193;29;20950;-83
2023/07/04 15:09:37;;;;;;;6.50;5.60;;;26.80;44.90;;;;;;4843166;29;20596;-83
2023/07/04 15:12:05;;;;;;;8.30;5.10;;;26.80;44.90;;;;;;4881594;29;20535;-82
2023/07/04 15:14:34;;;;;;;7.17;5.13;;;26.70;45.00;;;;;;4888272;29;20917;-83
2023/07/04 15:17:02;;;;;;;5.90;5.07;;;26.90;44.80;;;;;;4891390;29;20474;-82
2023/07/04 15:19:34;;;;;;;5.20;4.70;;;27.10;45.00;;;;;;4872127;29;20467;-83
2023/07/04 15:22:04;;;;;;;7.33;5.20;;;26.90;44.90;;;;;;4888291;29;20551;-82
2023/07/04 15:24:34;;;;;;;6.93;4.40;;;27.00;45.00;;;;;;4868753;29;21056;-83
2023/07/04 15:27:06;;;;;;;7.40;5.10;;;26.70;45.70;;;;;;4872936;29;20456;-81
2023/07/04 15:29:36;;;;;;;5.73;5.13;;;26.50;46.00;;;;;;4888117;29;20483;-84
2023/07/04 15:32:06;;;;;;;6.50;5.10;;;26.40;46.20;;;;;;4872745;29;20523;-82
2023/07/04 15:34:34;;;;;;;5.10;4.60;;;26.40;46.40;;;;;;4889776;29;20485;-82
2023/07/04 15:37:07;;;;;;;5.13;4.63;;;26.50;46.50;;;;;;4871788;29;20443;-82
2023/07/04 15:39:34;;;;;;;6.60;5.20;;;26.80;46.90;;;;;;4867073;29;20495;-82
2023/07/04 15:42:04;;;;;;;5.20;4.70;;;26.80;46.20;;;;;;4888504;29;20554;-83
2023/07/04 15:44:40;;;;;;;6.67;4.63;;;26.60;46.30;;;;;;4873691;29;20472;-82
2023/07/04 15:47:08;;;;;;;5.63;5.03;;;26.40;46.60;;;;;;4874831;29;20534;-84
2023/07/04 15:49:39;;;;;;;5.43;4.93;;;26.40;46.70;;;;;;4890050;29;20502;-83
2023/07/04 15:52:17;;;;;;;6.30;4.53;;;26.40;46.90;;;;;;4876281;29;20618;-82
2023/07/04 15:54:45;;;;;;;6.00;5.00;;;26.40;46.70;;;;;;4881474;29;20443;-82
2023/07/04 15:57:15;;;;;;;6.27;4.30;;;26.50;46.80;;;;;;4876752;29;20538;-83
2023/07/04 15:59:45;;;;;;;6.50;5.00;;;26.60;46.70;;;;;;4878937;29;20868;-81
2023/07/04 16:02:12;;;;;;;9.83;6.10;;;26.60;46.70;;;;;;4880981;29;20447;-84
2023/07/04 16:04:40;;;;;;;7.27;4.43;;;26.70;46.90;;;;;;4876997;29;22750;-81
2023/07/04 16:07:11;;;;;;;5.00;4.50;;;26.60;46.90;;;;;;4894061;29;20466;-85
2023/07/04 16:09:44;;;;;;;6.67;4.30;;;26.50;47.10;;;;;;4877519;29;20547;-83
2023/07/04 16:12:13;;;;;;;6.50;5.07;;;26.50;47.20;;;;;;4879090;29;22245;-85
2023/07/04 16:14:42;;;;;;;5.97;4.70;;;26.40;47.10;;;;;;4896006;29;20531;-83
2023/07/04 16:17:12;;;;;;;9.23;5.17;;;26.40;47.10;;;;;;4878956;29;20466;-84
2023/07/04 16:19:42;;;;;;;4.40;4.00;;;26.40;47.60;;;;;;4879488;29;20467;-85
2023/07/04 16:22:09;;;;;;;5.43;4.30;;;26.40;47.10;;;;;;4897613;29;20484;-81
2023/07/04 16:24:38;;;;;;;5.87;4.50;;;26.70;46.60;;;;;;4894764;29;20463;-82
2023/07/04 16:27:06;;;;;;;6.57;4.47;;;27.10;45.40;;;;;;4895387;29;20559;-82
2023/07/04 16:29:36;;;;;;;4.87;4.37;;;26.90;46.00;;;;;;4891515;29;20459;-83
2023/07/04 16:32:05;;;;;;;5.50;4.47;;;26.60;46.80;;;;;;4878879;29;20461;-83
2023/07/04 16:34:32;;;;;;;4.87;4.47;;;26.40;47.60;;;;;;4893529;29;20476;-82
2023/07/04 16:37:06;;;;;;;8.10;6.03;;;26.20;48.20;;;;;;4885397;29;20455;-83
2023/07/04 16:39:36;;;;;;;5.70;4.70;;;26.20;48.60;;;;;;4884022;29;20863;-83
2023/07/04 16:42:07;;;;;;;7.87;4.40;;;26.60;47.60;;;;;;4881469;29;22339;-82
2023/07/04 16:44:33;;;;;;;6.50;5.27;;;26.40;47.70;;;;;;4880814;29;20501;-82
2023/07/04 16:47:00;;;;;;;6.13;3.90;;;26.30;47.70;;;;;;4882004;29;20455;-84
2023/07/04 16:49:35;;;;;;;5.13;4.57;;;26.40;47.30;;;;;;4878449;29;20487;-84
2023/07/04 16:52:11;;;;;;;7.37;4.80;;;26.30;47.70;;;;;;4896347;29;20467;-84
2023/07/04 16:54:52;;;;;;;6.17;4.80;;;26.40;47.90;;;;;;4881159;29;21544;-82
2023/07/04 16:57:25;;;;;;;7.20;4.33;;;26.20;48.00;;;;;;4879864;29;20467;-82
2023/07/04 16:59:55;;;;;;;4.67;4.27;;;26.50;48.30;;;;;;4896236;29;21023;-81
2023/07/04 17:02:27;;;;;;;5.63;4.17;;;26.50;48.10;;;;;;4897270;29;20472;-84
2023/07/04 17:04:54;;;;;;;5.60;4.43;;;26.70;47.80;;;;;;4897799;29;20540;-84
2023/07/04 17:07:23;;;;;;;7.03;4.83;;;26.70;47.90;;;;;;4895239;29;20467;-83
2023/07/04 17:09:50;;;;;;;5.23;4.37;;;26.40;48.20;;;;;;4876532;29;20483;-83
2023/07/04 17:12:18;;;;;;;8.43;4.47;;;26.20;48.30;;;;;;4875751;29;20539;-82
2023/07/04 17:14:47;;;;;;;5.40;4.67;;;26.10;48.30;;;;;;4875348;29;20524;-82
2023/07/04 17:17:15;;;;;;;5.93;3.80;;;26.50;48.10;;;;;;4891545;29;20461;-84
2023/07/04 17:19:53;;;;;;;6.00;4.20;;;26.40;47.90;;;;;;4895789;29;21031;-84
2023/07/04 17:22:20;;;;;;;5.07;4.30;;;26.20;48.50;;;;;;4892317;29;20471;-81
2023/07/04 17:24:47;;;;;;;6.57;4.70;;;26.10;49.10;;;;;;4877897;29;21227;-82
2023/07/04 17:27:22;;;;;;;9.60;5.00;;;26.10;49.70;;;;;;4881501;29;20455;-82
2023/07/04 17:29:50;;;;;;;10.07;4.50;;;26.10;49.90;;;;;;4879236;29;20490;-81
2023/07/04 17:32:20;;;;;;;7.90;4.57;;;26.10;50.50;;;;;;4880157;29;20571;-82
2023/07/04 17:34:47;;;;;;;7.30;5.23;;;26.20;50.30;;;;;;4900429;29;20456;-83
2023/07/04 17:37:16;;;;;;;6.07;4.73;;;26.20;51.10;;;;;;4906136;29;20531;-84
2023/07/04 17:39:43;;;;;;;5.47;4.60;;;26.00;51.20;;;;;;4889379;29;20463;-84
2023/07/04 17:42:22;;;;;;;5.20;4.50;;;26.10;51.50;;;;;;4904515;29;20964;-84
2023/07/04 17:45:11;;;;;;;4.07;3.77;;;26.20;50.80;;;;;;4902169;29;20474;-83
2023/07/04 17:47:38;;;;;;;4.93;4.37;;;25.90;50.90;;;;;;4875875;29;20469;-82
2023/07/04 17:50:06;;;;;;;5.13;4.63;;;25.90;51.80;;;;;;4889979;29;20511;-82
2023/07/04 17:52:33;;;;;;;6.23;4.43;;;25.90;51.20;;;;;;4870661;29;20459;-82
2023/07/04 17:55:02;;;;;;;5.27;4.60;;;25.80;51.50;;;;;;4880375;29;20492;-81
2023/07/04 17:57:29;;;;;;;6.30;5.40;;;25.90;51.50;;;;;;4885330;29;20519;-83
2023/07/04 17:59:56;;;;;;;5.53;4.40;;;26.00;51.20;;;;;;4965501;23;20504;-83
2023/07/04 18:02:26;;;;;;;5.70;5.10;;;26.00;51.10;;;;;;4890212;29;20451;-83
2023/07/04 18:04:54;;;;;;;6.00;5.10;;;26.00;51.20;;;;;;4837441;29;20490;-79
2023/07/04 18:07:24;;;;;;;6.10;4.13;;;25.90;51.50;;;;;;4867158;29;20456;-80
2023/07/04 18:09:52;;;;;;;5.70;4.47;;;25.90;52.00;;;;;;4874365;29;20464;-81
2023/07/04 18:12:24;;;;;;;5.90;4.07;;;25.90;51.90;;;;;;4872122;29;20474;-82
2023/07/04 18:14:55;;;;;;;6.37;4.60;;;25.80;52.20;;;;;;4893689;29;20507;-81
2023/07/04 18:17:25;;;;;;;6.40;5.00;;;25.80;51.90;;;;;;4874126;29;20459;-82
2023/07/04 18:19:58;;;;;;;5.67;4.80;;;25.80;52.00;;;;;;4873654;29;20456;-83
2023/07/04 18:22:25;;;;;;;4.80;4.30;;;25.70;51.80;;;;;;4887304;29;20919;-82
2023/07/04 18:24:53;;;;;;;5.80;4.63;;;25.60;51.90;;;;;;4858303;29;20559;-84
2023/07/04 18:27:22;;;;;;;6.13;4.60;;;25.80;51.70;;;;;;4888122;29;20491;-83
2023/07/04 18:29:54;;;;;;;8.43;4.80;;;25.80;51.80;;;;;;4871920;29;20464;-83
2023/07/04 18:32:23;;;;;;;6.40;4.27;;;25.80;51.70;;;;;;4873484;29;20464;-84
2023/07/04 18:34:54;;;;;;;6.90;4.83;;;25.70;52.00;;;;;;4873480;29;20535;-83
2023/07/04 18:37:23;;;;;;;8.83;4.90;;;25.60;52.60;;;;;;4873137;29;20516;-83
2023/07/04 18:39:50;;;;;;;4.77;4.17;;;25.80;52.20;;;;;;4871212;29;20470;-82
2023/07/04 18:42:17;;;;;;;5.50;4.97;;;25.80;52.40;;;;;;4871892;29;20448;-82
2023/07/04 18:44:45;;;;;;;5.30;4.40;;;25.90;52.90;;;;;;4873585;29;20459;-83
2023/07/04 18:47:12;;;;;;;6.10;5.00;;;25.70;53.40;;;;;;4874158;29;20499;-84
2023/07/04 18:49:40;;;;;;;6.77;4.73;;;25.70;53.40;;;;;;4872149;29;20519;-82
2023/07/04 18:52:07;;;;;;;5.03;4.53;;;25.40;54.40;;;;;;4874462;29;20586;-84
2023/07/04 18:54:34;;;;;;;7.20;4.93;;;25.10;54.40;;;;;;4892245;29;20448;-82
2023/07/04 18:57:03;;;;;;;6.13;4.10;;;25.10;54.30;;;;;;4893898;29;20456;-82
2023/07/04 18:59:33;;;;;;;5.90;3.80;;;25.00;54.20;;;;;;4872608;29;20468;-83
2023/07/04 19:02:00;;;;;;;6.23;4.57;;;25.20;54.50;;;;;;4890021;29;20480;-82
2023/07/04 19:04:27;;;;;;;5.83;4.47;;;25.00;54.70;;;;;;4889432;29;21158;-83
2023/07/04 19:06:54;;;;;;;6.13;4.63;;;24.90;54.90;;;;;;4876883;29;20471;-82
2023/07/04 19:09:21;;;;;;;5.60;4.80;;;24.90;55.00;;;;;;4884998;29;21002;-84
2023/07/04 19:11:49;;;;;;;5.43;4.33;;;25.00;54.80;;;;;;4895536;29;20494;-82
2023/07/04 19:14:18;;;;;;;6.37;5.73;;;24.90;54.80;;;;;;4893435;29;20447;-84
2023/07/04 19:16:54;;;;;;;7.43;5.10;;;24.80;54.80;;;;;;4907948;29;20507;-82
2023/07/04 19:19:36;;;;;;;5.93;4.70;;;25.00;54.70;;;;;;4888446;29;20485;-82
2023/07/04 19:22:05;;;;;;;8.10;4.90;;;24.90;54.30;;;;;;4891858;29;20469;-83
2023/07/04 19:24:42;;;;;;;4.77;4.37;;;24.80;54.70;;;;;;4911176;29;20442;-81
2023/07/04 19:27:16;;;;;;;7.37;5.27;;;24.70;55.00;;;;;;4907687;29;20459;-81
2023/07/04 19:29:46;;;;;;;5.40;4.90;;;24.60;55.30;;;;;;4907949;29;20448;-83
2023/07/04 19:32:14;;;;;;;5.47;4.93;;;24.70;55.30;;;;;;4887824;29;20501;-82
2023/07/04 19:34:51;;;;;;;5.73;5.23;;;24.60;55.20;;;;;;4883836;29;20452;-83
2023/07/04 19:37:29;;;;;;;5.57;4.70;;;24.50;55.20;;;;;;4894221;29;20511;-84
2023/07/04 19:39:59;;;;;;;7.10;6.17;;;24.50;57.00;;;;;;4882078;29;20451;-83
2023/07/04 19:42:26;;;;;;;16.80;6.33;;;24.50;58.30;;;;;;4892599;29;20491;-82
2023/07/04 19:45:04;;;;;;;8.40;5.23;;;24.50;61.70;;;;;;4868955;29;20926;-83
2023/07/04 19:47:52;;;;;;;7.73;7.03;;;24.40;61.80;;;;;;4874348;29;20687;-83
2023/07/04 19:50:37;;;;;;;8.10;6.17;;;24.40;61.20;;;;;;4892760;29;22450;-84
2023/07/04 19:53:13;;;;;;;7.57;5.10;;;24.50;61.90;;;;;;4876898;29;20459;-80
2023/07/04 19:56:07;;;;;;;6.93;5.43;;;24.40;62.40;;;;;;4894621;29;20475;-83
2023/07/04 19:58:37;;;;;;;6.83;5.70;;;24.50;61.90;;;;;;4877603;29;20463;-82
2023/07/04 20:01:11;;;;;;;6.10;4.77;;;24.40;59.90;;;;;;4890580;29;20535;-83
2023/07/04 20:03:40;;;;;;;7.37;5.10;;;24.60;60.00;;;;;;4874200;29;20452;-84